Time;durP1;ratioP1;P1;durP2;ratioP2;P2;SDS_P1;SDS_P2;PMS_P1;PMS_P2;Temp;Humidity;BMP_temperature;BMP_pressure;BME280_temperature;BME280_humidity;BME280_pressure;Samples;Min_cycle;Max_cycle;Signal;HPM_P1;HPM_P2
2021/09/30 00:02:05;;;;;;;13.63;6.63;;;384.50;2329.60;;;;;;5058737;28;20028;-71
2021/09/30 00:04:30;;;;;;;11.25;6.38;;;384.50;2329.60;;;;;;5052785;28;20033;-71
2021/09/30 00:06:56;;;;;;;9.38;6.47;;;384.50;2329.60;;;;;;5053419;28;20061;-71
2021/09/30 00:09:22;;;;;;;7.50;5.30;;;384.50;2329.60;;;;;;5052801;28;20033;-71
2021/09/30 00:11:52;;;;;;;12.38;7.03;;;384.50;2329.60;;;;;;5052362;28;20059;-71
2021/09/30 00:33:21;;;;;;;9.85;6.47;;;384.70;2329.60;;;;;;5012025;28;20037;-71
2021/09/30 00:46:30;;;;;;;9.57;6.97;;;384.90;2329.60;;;;;;5007097;28;20093;-71
2021/09/30 00:49:03;;;;;;;9.98;6.03;;;384.80;2329.60;;;;;;5003112;28;20045;-71
2021/09/30 00:51:37;;;;;;;9.80;5.85;;;384.80;2329.60;;;;;;4992852;28;20045;-72
2021/09/30 01:19:44;;;;;;;9.25;5.95;;;384.90;2329.60;;;;;;5051914;28;20442;-71
2021/09/30 03:00:42;;;;;;;9.35;7.22;;;384.80;2329.60;;;;;;5051388;28;20032;-71
2021/09/30 03:03:12;;;;;;;11.88;9.10;;;384.80;2329.60;;;;;;5051345;28;20017;-72
2021/09/30 03:05:40;;;;;;;9.57;7.63;;;384.80;2329.60;;;;;;5050084;28;20033;-72
2021/09/30 03:08:05;;;;;;;12.15;7.65;;;384.70;2329.60;;;;;;5051697;28;20044;-72
2021/09/30 03:10:32;;;;;;;10.55;7.55;;;384.70;2329.60;;;;;;5051655;28;20741;-72
2021/09/30 03:12:59;;;;;;;10.93;7.75;;;384.70;2329.60;;;;;;5051235;28;20033;-72
2021/09/30 03:18:10;;;;;;;13.77;7.70;;;384.80;2329.60;;;;;;5055317;28;20052;-72
2021/09/30 03:23:28;;;;;;;13.63;8.18;;;384.80;2329.60;;;;;;5055214;28;20091;-72
2021/09/30 03:25:54;;;;;;;14.82;10.23;;;384.80;2329.60;;;;;;5055101;28;20035;-72
2021/09/30 03:28:23;;;;;;;12.30;7.80;;;384.70;2329.60;;;;;;5054970;28;20025;-72
2021/09/30 03:30:52;;;;;;;11.48;7.10;;;384.70;2329.60;;;;;;5053486;28;20056;-72
2021/09/30 03:33:19;;;;;;;13.15;9.25;;;384.70;2329.60;;;;;;5054792;28;20458;-72
2021/09/30 03:35:45;;;;;;;11.38;7.18;;;384.70;2329.60;;;;;;5052270;28;20020;-72
2021/09/30 03:38:11;;;;;;;13.75;8.57;;;384.70;2329.60;;;;;;5056719;28;20024;-72
2021/09/30 03:40:38;;;;;;;11.13;7.55;;;384.70;2329.60;;;;;;5065832;28;20029;-73
2021/09/30 03:43:05;;;;;;;10.55;7.07;;;384.70;2329.60;;;;;;5062177;28;20029;-73
2021/09/30 03:45:32;;;;;;;13.18;6.88;;;384.70;2329.60;;;;;;5054386;28;20024;-73
2021/09/30 03:47:58;;;;;;;10.98;8.02;;;384.70;2329.60;;;;;;5063374;28;20183;-73
2021/09/30 03:50:27;;;;;;;11.20;7.10;;;384.70;2329.60;;;;;;5054454;28;20055;-73
2021/09/30 04:00:47;;;;;;;16.60;8.23;;;384.80;2329.60;;;;;;5060509;28;20051;-76
2021/09/30 04:03:13;;;;;;;12.15;6.70;;;384.80;2329.60;;;;;;5053510;28;20487;-74
2021/09/30 04:05:38;;;;;;;8.05;6.90;;;384.80;2329.60;;;;;;5054179;28;20025;-74
2021/09/30 04:08:04;;;;;;;11.63;6.80;;;384.80;2329.60;;;;;;5067051;28;20029;-74
2021/09/30 04:10:30;;;;;;;9.60;6.53;;;384.80;2329.60;;;;;;5054996;28;20086;-74
2021/09/30 04:12:56;;;;;;;10.57;6.57;;;384.90;2329.60;;;;;;5053104;28;20024;-73
2021/09/30 04:15:22;;;;;;;14.02;7.68;;;384.90;2329.60;;;;;;5054807;28;20028;-74
2021/09/30 04:17:47;;;;;;;8.98;7.00;;;384.90;2329.60;;;;;;5054248;28;20100;-73
2021/09/30 04:20:13;;;;;;;11.13;7.65;;;384.90;2329.60;;;;;;5056353;28;20432;-73
2021/09/30 04:22:40;;;;;;;10.90;7.40;;;384.90;2329.60;;;;;;5052354;28;20018;-73
2021/09/30 04:25:07;;;;;;;10.23;6.60;;;384.90;2329.60;;;;;;5046829;28;21709;-73
2021/09/30 04:27:33;;;;;;;10.35;7.13;;;409.60;2355.20;;;;;;5053026;28;20467;-73
2021/09/30 04:29:59;;;;;;;11.65;6.75;;;409.60;2355.20;;;;;;5042351;28;20027;-73
2021/09/30 04:32:25;;;;;;;9.38;6.75;;;409.60;2355.20;;;;;;5057176;28;20092;-73
2021/09/30 04:34:50;;;;;;;9.95;6.38;;;409.60;2355.20;;;;;;5055704;28;20092;-73
2021/09/30 04:37:16;;;;;;;12.95;7.53;;;409.60;2355.20;;;;;;5055995;28;20539;-73
2021/09/30 04:39:42;;;;;;;9.75;7.00;;;409.60;2355.20;;;;;;5037578;28;20026;-73
2021/09/30 04:42:08;;;;;;;13.23;6.80;;;409.60;2355.20;;;;;;5035911;28;20040;-73
2021/09/30 04:44:34;;;;;;;10.50;6.43;;;409.60;2355.20;;;;;;5052851;28;20392;-73
2021/09/30 04:46:59;;;;;;;9.38;6.60;;;409.60;2355.20;;;;;;5053227;28;20036;-73
2021/09/30 04:49:25;;;;;;;10.23;6.45;;;409.60;2355.20;;;;;;5063356;28;20025;-73
2021/09/30 04:51:51;;;;;;;11.57;6.65;;;409.60;2355.20;;;;;;5083872;28;20025;-74
2021/09/30 04:54:17;;;;;;;9.65;6.75;;;384.90;2329.60;;;;;;5054144;28;20115;-74
2021/09/30 04:56:42;;;;;;;11.18;7.28;;;409.60;2355.20;;;;;;5061051;28;20044;-74
2021/09/30 04:59:08;;;;;;;9.88;7.63;;;409.60;2355.20;;;;;;5060916;28;20061;-73
2021/09/30 05:01:34;;;;;;;8.50;6.60;;;409.60;2355.20;;;;;;5059895;28;20078;-73
2021/09/30 05:04:00;;;;;;;11.02;7.20;;;409.60;2355.20;;;;;;5052596;28;20104;-73
2021/09/30 05:06:25;;;;;;;9.23;6.85;;;409.70;2355.20;;;;;;5049024;28;20074;-73
2021/09/30 05:08:56;;;;;;;11.07;7.45;;;409.80;2355.20;;;;;;5061323;28;20021;-74
2021/09/30 05:11:23;;;;;;;7.97;6.63;;;409.80;2355.20;;;;;;5061827;28;20017;-74
2021/09/30 05:13:53;;;;;;;10.40;6.70;;;409.80;2355.20;;;;;;5055995;28;20467;-73
2021/09/30 05:16:19;;;;;;;10.00;6.82;;;409.80;2355.20;;;;;;5053218;28;20035;-73
2021/09/30 05:18:47;;;;;;;8.90;7.05;;;409.80;2355.20;;;;;;5046303;28;20026;-73
2021/09/30 05:21:13;;;;;;;10.30;6.90;;;409.80;2355.20;;;;;;5053079;28;20017;-73
2021/09/30 05:23:39;;;;;;;10.85;7.35;;;409.80;2355.20;;;;;;5053390;28;20037;-73
2021/09/30 05:26:06;;;;;;;13.18;7.82;;;409.80;2355.20;;;;;;5050728;28;20078;-74
2021/09/30 05:28:32;;;;;;;10.10;7.30;;;409.80;2355.20;;;;;;5052031;28;20067;-74
2021/09/30 05:30:58;;;;;;;8.82;6.70;;;409.80;2355.20;;;;;;5053133;28;20053;-73
2021/09/30 05:33:24;;;;;;;10.38;6.68;;;409.80;2355.20;;;;;;5056221;28;20017;-73
2021/09/30 05:35:50;;;;;;;11.80;7.78;;;409.80;2355.20;;;;;;5056542;28;20039;-73
2021/09/30 05:38:16;;;;;;;10.75;6.82;;;409.80;2355.20;;;;;;5072143;28;20480;-73
2021/09/30 05:40:43;;;;;;;12.32;7.43;;;409.80;2355.20;;;;;;5067627;28;20056;-73
2021/09/30 05:43:15;;;;;;;10.23;7.68;;;409.90;2355.20;;;;;;5073979;28;20510;-74
2021/09/30 05:45:42;;;;;;;17.00;9.00;;;409.90;2355.20;;;;;;5050089;28;20393;-73
2021/09/30 05:48:08;;;;;;;10.93;7.97;;;410.00;2355.20;;;;;;5059355;28;20079;-74
2021/09/30 05:50:35;;;;;;;9.77;7.90;;;410.00;2355.20;;;;;;5052473;28;20021;-74
2021/09/30 05:53:01;;;;;;;11.23;7.60;;;410.00;2355.20;;;;;;5053412;28;20025;-73
2021/09/30 05:55:27;;;;;;;11.75;7.60;;;410.10;2355.20;;;;;;5052454;28;20033;-73
2021/09/30 05:57:52;;;;;;;11.82;9.20;;;410.10;2355.20;;;;;;5051546;28;20021;-73
2021/09/30 06:00:31;;;;;;;10.90;8.23;;;410.10;2355.20;;;;;;5054695;28;20940;-73
2021/09/30 06:11:13;;;;;;;12.75;7.60;;;410.30;2355.20;;;;;;5051987;28;20036;-74
2021/09/30 06:16:09;;;;;;;16.80;8.10;;;410.50;2355.20;;;;;;5052563;28;20032;-74
2021/09/30 06:18:35;;;;;;;12.55;8.82;;;435.20;2355.20;;;;;;5052056;28;20025;-74
2021/09/30 06:21:01;;;;;;;12.45;7.63;;;435.30;2355.20;;;;;;5059094;28;20029;-74
2021/09/30 06:23:27;;;;;;;9.20;7.25;;;435.30;2355.20;;;;;;5068199;28;20491;-74
2021/09/30 06:25:52;;;;;;;9.68;7.13;;;435.40;2355.20;;;;;;5065082;28;20029;-74
2021/09/30 06:28:18;;;;;;;12.82;8.35;;;435.50;2355.20;;;;;;5062292;28;20140;-73
2021/09/30 06:30:44;;;;;;;11.40;7.93;;;435.60;2355.20;;;;;;5056058;28;20763;-73
2021/09/30 06:33:09;;;;;;;12.90;7.93;;;435.70;2355.20;;;;;;5049558;28;20728;-73
2021/09/30 06:35:35;;;;;;;15.93;8.57;;;435.70;2355.20;;;;;;5050909;28;20063;-73
2021/09/30 06:38:01;;;;;;;12.95;7.53;;;435.80;2355.20;;;;;;5050570;28;20098;-72
2021/09/30 06:40:29;;;;;;;10.10;8.60;;;435.90;2355.20;;;;;;5051076;28;20021;-73
2021/09/30 06:42:55;;;;;;;11.77;8.05;;;436.00;2355.20;;;;;;5049577;28;20016;-73
2021/09/30 06:45:20;;;;;;;11.57;7.82;;;436.00;2355.20;;;;;;5052202;28;20100;-73
2021/09/30 06:47:46;;;;;;;12.80;8.35;;;436.10;2355.20;;;;;;5050649;28;20025;-73
2021/09/30 06:50:15;;;;;;;15.40;9.18;;;460.80;2380.80;;;;;;5065228;28;20119;-73
2021/09/30 06:52:41;;;;;;;11.68;7.30;;;461.00;2380.80;;;;;;5049682;28;20434;-73
2021/09/30 06:55:07;;;;;;;10.80;6.88;;;461.10;2380.80;;;;;;5050821;28;20056;-72
2021/09/30 06:57:33;;;;;;;9.07;6.68;;;461.30;2380.80;;;;;;5050604;28;20033;-73
2021/09/30 07:00:02;;;;;;;14.93;7.50;;;461.30;2380.80;;;;;;5051208;28;20050;-73
2021/09/30 07:02:27;;;;;;;12.40;7.35;;;461.40;2380.80;;;;;;5047747;28;20032;-73
2021/09/30 07:04:53;;;;;;;13.70;7.53;;;461.50;2380.80;;;;;;5050773;28;20029;-74
2021/09/30 07:07:20;;;;;;;17.98;8.00;;;461.50;2380.80;;;;;;5048719;28;20040;-73
2021/09/30 07:09:46;;;;;;;8.95;6.88;;;461.60;2380.80;;;;;;5050706;28;20021;-73
2021/09/30 07:12:12;;;;;;;9.70;7.20;;;486.40;2380.80;;;;;;5052544;28;20589;-73
2021/09/30 07:14:41;;;;;;;10.10;7.00;;;486.50;2380.80;;;;;;5050856;28;20051;-73
2021/09/30 07:17:08;;;;;;;10.00;6.75;;;486.50;2380.80;;;;;;5048867;28;20029;-73
2021/09/30 07:19:35;;;;;;;11.43;6.82;;;486.60;2380.80;;;;;;5049778;28;20044;-73
2021/09/30 07:22:03;;;;;;;10.02;6.32;;;486.60;2380.80;;;;;;5052005;28;20036;-74
2021/09/30 07:24:29;;;;;;;11.38;6.15;;;486.80;2380.80;;;;;;5050868;28;20052;-74
2021/09/30 07:26:56;;;;;;;11.25;6.07;;;486.90;2380.80;;;;;;5049498;28;20531;-74
2021/09/30 07:29:22;;;;;;;12.90;6.30;;;486.90;2380.80;;;;;;5061184;28;20074;-74
2021/09/30 07:31:47;;;;;;;8.55;5.95;;;486.90;2380.80;;;;;;5066938;28;20120;-74
2021/09/30 07:34:13;;;;;;;11.25;6.80;;;486.90;2380.80;;;;;;5047946;28;20030;-73
2021/09/30 07:36:41;;;;;;;23.38;21.15;;;486.90;2380.80;;;;;;5052692;28;20024;-74
2021/09/30 07:39:07;;;;;;;13.35;10.65;;;486.90;2380.80;;;;;;5045443;28;20029;-74
2021/09/30 07:41:34;;;;;;;15.35;7.75;;;486.90;2380.80;;;;;;5050958;28;20021;-74
2021/09/30 07:44:03;;;;;;;13.93;7.60;;;486.90;2380.80;;;;;;5050861;28;20033;-74
2021/09/30 07:46:30;;;;;;;13.23;6.07;;;486.90;2380.80;;;;;;5050991;28;20491;-74
2021/09/30 07:48:56;;;;;;;11.45;8.43;;;486.90;2380.80;;;;;;5059059;28;20037;-74
2021/09/30 07:51:22;;;;;;;20.20;9.32;;;486.90;2380.80;;;;;;5061945;28;20035;-74
2021/09/30 07:53:47;;;;;;;13.73;5.65;;;487.00;2380.80;;;;;;5058993;28;20128;-74
2021/09/30 07:56:13;;;;;;;16.90;6.82;;;487.00;2380.80;;;;;;5064266;28;20029;-74
2021/09/30 07:58:39;;;;;;;17.58;7.68;;;487.00;2380.80;;;;;;5060135;28;20083;-74
2021/09/30 08:01:04;;;;;;;14.48;8.77;;;487.00;2380.80;;;;;;5048677;28;20442;-74
2021/09/30 08:03:30;;;;;;;12.13;6.55;;;487.20;2380.80;;;;;;5070362;28;20391;-74
2021/09/30 08:05:56;;;;;;;14.90;7.38;;;487.20;2380.80;;;;;;5058817;28;20032;-74
2021/09/30 08:08:22;;;;;;;15.05;7.60;;;487.20;2380.80;;;;;;5062767;28;20799;-74
2021/09/30 08:10:48;;;;;;;16.55;8.02;;;487.20;2380.80;;;;;;5054741;28;20025;-74
2021/09/30 08:13:13;;;;;;;15.18;7.00;;;487.30;2380.80;;;;;;5054956;28;20028;-74
2021/09/30 08:15:39;;;;;;;9.93;6.20;;;487.30;2380.80;;;;;;5052739;28;20048;-75
2021/09/30 08:18:05;;;;;;;11.45;7.45;;;487.30;2380.80;;;;;;5056523;28;20491;-74
2021/09/30 08:20:32;;;;;;;14.82;7.63;;;487.30;2380.80;;;;;;5057458;28;20029;-74
2021/09/30 08:22:58;;;;;;;18.15;7.47;;;487.10;2380.80;;;;;;5053481;28;20021;-74
2021/09/30 08:25:24;;;;;;;22.75;7.50;;;487.10;2380.80;;;;;;5056507;28;20049;-74
2021/09/30 08:27:50;;;;;;;14.82;9.07;;;487.10;2380.80;;;;;;5046151;28;20104;-73
2021/09/30 08:30:16;;;;;;;13.25;8.52;;;487.30;2380.80;;;;;;5048570;28;20017;-74
2021/09/30 08:32:42;;;;;;;11.93;6.55;;;487.30;2380.80;;;;;;5053034;28;20017;-74
2021/09/30 08:35:08;;;;;;;17.67;6.68;;;487.30;2380.80;;;;;;5047317;28;20116;-74
2021/09/30 08:37:35;;;;;;;22.65;8.93;;;487.30;2380.80;;;;;;5053403;28;20108;-74
2021/09/30 08:40:00;;;;;;;15.73;7.00;;;487.30;2380.80;;;;;;5069537;28;20032;-74
2021/09/30 08:42:27;;;;;;;15.57;7.47;;;512.00;2380.80;;;;;;5042146;28;20028;-74
2021/09/30 08:44:53;;;;;;;13.43;7.35;;;512.00;2380.80;;;;;;5049836;28;20426;-74
2021/09/30 08:47:22;;;;;;;12.45;6.03;;;512.00;2380.80;;;;;;5063865;28;20024;-75
2021/09/30 08:49:47;;;;;;;17.13;7.75;;;512.10;2380.80;;;;;;5048747;28;20029;-74
2021/09/30 08:52:14;;;;;;;16.27;9.52;;;512.20;2380.80;;;;;;5054189;28;20551;-75
2021/09/30 08:54:39;;;;;;;14.13;6.82;;;512.20;2380.80;;;;;;5062479;28;20112;-75
2021/09/30 08:57:06;;;;;;;21.90;7.43;;;512.00;2380.80;;;;;;5050002;28;20104;-77
2021/09/30 08:59:32;;;;;;;27.13;13.95;;;487.30;2380.80;;;;;;5062672;28;20430;-73
2021/09/30 09:02:14;;;;;;;15.25;8.90;;;512.00;2380.80;;;;;;5062925;28;20029;-73
2021/09/30 09:04:57;;;;;;;10.90;8.77;;;512.10;2380.80;;;;;;5053410;28;20087;-75
2021/09/30 09:07:28;;;;;;;22.38;12.70;;;512.10;2380.80;;;;;;5035952;28;20072;-73
2021/09/30 09:09:56;;;;;;;14.18;7.35;;;512.10;2380.80;;;;;;5057814;28;20026;-73
2021/09/30 09:12:23;;;;;;;13.52;6.82;;;512.10;2380.80;;;;;;5052401;28;20408;-74
2021/09/30 09:14:50;;;;;;;10.95;6.85;;;512.10;2380.80;;;;;;5058160;28;20475;-73
2021/09/30 09:17:18;;;;;;;12.45;7.45;;;512.10;2380.80;;;;;;5058023;28;20048;-73
2021/09/30 09:19:51;;;;;;;14.48;7.32;;;512.20;2380.80;;;;;;5048957;28;20537;-73
2021/09/30 09:22:22;;;;;;;12.18;5.97;;;512.40;2380.80;;;;;;5052640;28;20032;-73
2021/09/30 09:24:57;;;;;;;20.58;6.18;;;512.60;2380.80;;;;;;5056880;28;20056;-73
2021/09/30 09:27:23;;;;;;;16.37;6.50;;;512.70;2380.80;;;;;;5059630;28;20384;-73
2021/09/30 09:29:49;;;;;;;15.93;6.93;;;512.90;2380.80;;;;;;5051832;28;20021;-73
2021/09/30 09:32:15;;;;;;;13.43;6.78;;;537.60;2406.40;;;;;;5063870;28;20028;-74
2021/09/30 09:34:41;;;;;;;15.07;8.10;;;537.90;2406.40;;;;;;5052975;28;20029;-73
2021/09/30 09:37:19;;;;;;;17.38;9.48;;;538.10;2406.40;;;;;;5069561;28;20087;-73
2021/09/30 09:39:46;;;;;;;24.30;11.63;;;538.10;2406.40;;;;;;5060813;28;20032;-73
2021/09/30 09:42:15;;;;;;;17.38;9.05;;;538.50;2406.40;;;;;;5057060;28;20082;-73
2021/09/30 09:45:02;;;;;;;25.70;11.10;;;563.20;2432.00;;;;;;5059154;28;20132;-74
2021/09/30 09:47:34;;;;;;;17.95;10.45;;;563.30;2432.00;;;;;;5057922;28;20033;-73
2021/09/30 09:50:18;;;;;;;21.60;10.98;;;563.30;2432.00;;;;;;5073468;28;20518;-73
2021/09/30 09:53:06;;;;;;;19.52;11.98;;;563.40;2432.00;;;;;;5052808;28;20028;-74
2021/09/30 09:55:42;;;;;;;17.40;10.95;;;563.50;2432.00;;;;;;5050890;28;20025;-73
2021/09/30 09:58:16;;;;;;;17.73;10.70;;;563.60;2432.00;;;;;;5051317;28;20059;-73
2021/09/30 10:01:01;;;;;;;21.67;12.95;;;563.70;2432.00;;;;;;5052298;28;20044;-74
2021/09/30 10:03:30;;;;;;;19.33;12.10;;;563.90;2432.00;;;;;;5052622;28;20021;-73
2021/09/30 10:05:58;;;;;;;24.02;13.88;;;564.10;2432.00;;;;;;5059798;28;20028;-73
2021/09/30 10:08:24;;;;;;;20.92;13.38;;;588.90;2432.00;;;;;;5058238;28;20111;-73
2021/09/30 10:10:53;;;;;;;20.20;15.85;;;589.00;2432.00;;;;;;5061662;28;20564;-73
2021/09/30 10:13:19;;;;;;;23.70;15.00;;;589.00;2432.00;;;;;;5052355;28;20071;-74
2021/09/30 10:15:46;;;;;;;23.40;14.50;;;589.10;2432.00;;;;;;5058998;28;20029;-73
2021/09/30 10:18:13;;;;;;;22.98;12.60;;;589.10;2432.00;;;;;;5050413;28;20021;-73
2021/09/30 10:20:40;;;;;;;24.55;13.80;;;563.80;2432.00;;;;;;5048323;28;20365;-73
2021/09/30 10:23:08;;;;;;;23.42;15.80;;;564.10;2432.00;;;;;;5058345;28;20484;-73
2021/09/30 10:25:39;;;;;;;26.52;14.77;;;564.10;2432.00;;;;;;5069851;28;20036;-73
2021/09/30 10:28:07;;;;;;;25.85;16.08;;;564.00;2432.00;;;;;;5051992;28;20079;-73
2021/09/30 10:30:40;;;;;;;22.20;13.77;;;564.10;2432.00;;;;;;5058069;28;20049;-72
2021/09/30 10:33:12;;;;;;;21.02;12.82;;;564.10;2432.00;;;;;;5054645;28;20045;-73
2021/09/30 10:35:39;;;;;;;16.83;11.93;;;564.10;2432.00;;;;;;5051626;28;20027;-72
2021/09/30 10:38:24;;;;;;;19.10;12.35;;;563.90;2432.00;;;;;;5053945;28;20032;-71
2021/09/30 10:41:09;;;;;;;21.60;12.00;;;563.40;2432.00;;;;;;5046123;28;20033;-71
2021/09/30 10:43:44;;;;;;;20.55;12.75;;;563.40;2432.00;;;;;;5056450;28;20021;-71
2021/09/30 10:46:33;;;;;;;19.85;12.18;;;563.60;2432.00;;;;;;5050908;28;20021;-71
2021/09/30 10:48:58;;;;;;;15.93;12.05;;;563.30;2432.00;;;;;;5044758;28;20033;-72
2021/09/30 10:51:24;;;;;;;23.35;12.43;;;563.20;2432.00;;;;;;5050827;28;20021;-72
2021/09/30 10:53:51;;;;;;;17.70;11.98;;;538.40;2406.40;;;;;;5050871;28;20033;-72
2021/09/30 10:59:09;;;;;;;17.38;13.30;;;538.30;2406.40;;;;;;5048836;28;20071;-73
2021/09/30 11:01:47;;;;;;;19.65;13.20;;;538.20;2406.40;;;;;;5050426;28;20024;-74
2021/09/30 11:04:17;;;;;;;24.15;13.73;;;538.20;2406.40;;;;;;5059536;28;20025;-74
2021/09/30 11:07:14;;;;;;;25.58;14.45;;;538.20;2406.40;;;;;;5066490;28;20025;-75
2021/09/30 11:09:39;;;;;;;17.95;12.93;;;538.10;2406.40;;;;;;5047112;28;20028;-74
2021/09/30 11:12:13;;;;;;;25.75;12.93;;;537.90;2406.40;;;;;;5055584;28;20025;-74
2021/09/30 11:14:58;;;;;;;20.30;12.63;;;537.80;2406.40;;;;;;5050461;28;20400;-74
2021/09/30 11:17:37;;;;;;;24.85;12.38;;;537.90;2406.40;;;;;;5049516;28;20040;-74
2021/09/30 11:20:35;;;;;;;24.02;13.73;;;537.70;2406.40;;;;;;5053702;28;20029;-74
2021/09/30 11:23:03;;;;;;;19.55;11.98;;;512.90;2380.80;;;;;;5045551;28;20025;-74
2021/09/30 11:26:04;;;;;;;22.38;11.50;;;512.70;2380.80;;;;;;5050002;28;20052;-74
2021/09/30 11:28:30;;;;;;;20.70;12.45;;;512.50;2380.80;;;;;;5046358;28;20028;-74
2021/09/30 11:31:25;;;;;;;18.77;11.02;;;512.40;2380.80;;;;;;5059395;28;20095;-74
2021/09/30 11:33:52;;;;;;;22.77;12.63;;;512.30;2380.80;;;;;;5064621;28;20016;-74
2021/09/30 11:36:19;;;;;;;24.90;12.82;;;512.10;2380.80;;;;;;5064442;28;20072;-74
2021/09/30 11:38:45;;;;;;;18.42;10.90;;;512.00;2380.80;;;;;;5044063;28;20044;-74
2021/09/30 11:41:12;;;;;;;20.55;12.00;;;487.30;2380.80;;;;;;5054855;28;20087;-73
2021/09/30 11:43:39;;;;;;;17.67;10.65;;;487.30;2380.80;;;;;;5054443;28;20694;-77
2021/09/30 11:46:33;;;;;;;19.52;10.57;;;487.20;2380.80;;;;;;5055597;28;20789;-74
2021/09/30 11:49:05;;;;;;;19.50;9.63;;;487.30;2380.80;;;;;;5054683;28;20592;-75
2021/09/30 11:51:38;;;;;;;16.80;9.23;;;487.30;2380.80;;;;;;5059353;28;20020;-74
2021/09/30 11:54:05;;;;;;;16.23;9.32;;;487.30;2380.80;;;;;;5073070;28;20113;-74
2021/09/30 11:56:41;;;;;;;16.23;8.60;;;487.20;2380.80;;;;;;5075673;28;20091;-72
2021/09/30 11:59:08;;;;;;;13.95;8.32;;;487.10;2380.80;;;;;;5058253;28;20036;-72
2021/09/30 12:01:44;;;;;;;14.63;8.27;;;487.00;2380.80;;;;;;5081868;28;20021;-73
2021/09/30 12:04:12;;;;;;;12.68;8.52;;;487.00;2380.80;;;;;;5053658;28;20111;-74
2021/09/30 12:06:44;;;;;;;13.32;7.72;;;487.10;2380.80;;;;;;5060206;28;20060;-74
2021/09/30 12:09:16;;;;;;;15.35;7.40;;;486.90;2380.80;;;;;;5057658;28;20021;-74
2021/09/30 12:11:49;;;;;;;15.65;8.15;;;486.80;2380.80;;;;;;5072047;28;20037;-74
2021/09/30 12:14:15;;;;;;;15.70;8.10;;;486.80;2380.80;;;;;;5054587;28;20025;-74
2021/09/30 12:17:01;;;;;;;17.67;9.00;;;486.80;2380.80;;;;;;5054237;28;20040;-74
2021/09/30 12:19:39;;;;;;;18.63;8.50;;;486.80;2380.80;;;;;;5053293;28;20078;-74
2021/09/30 12:22:14;;;;;;;12.73;8.23;;;486.60;2380.80;;;;;;5050838;28;20511;-74
2021/09/30 12:24:42;;;;;;;16.02;9.73;;;486.50;2380.80;;;;;;5060413;28;20090;-74
2021/09/30 12:27:09;;;;;;;20.08;10.50;;;486.50;2380.80;;;;;;5054477;28;20265;-74
2021/09/30 12:29:43;;;;;;;12.27;8.55;;;486.60;2380.80;;;;;;5055920;28;20032;-74
2021/09/30 12:32:13;;;;;;;14.27;8.43;;;486.50;2380.80;;;;;;5055841;28;20021;-74
2021/09/30 12:34:39;;;;;;;19.13;9.60;;;486.40;2380.80;;;;;;5057301;28;20025;-74
2021/09/30 12:37:05;;;;;;;16.58;9.73;;;486.40;2380.80;;;;;;5054552;28;20029;-74
2021/09/30 12:39:33;;;;;;;20.42;12.05;;;486.40;2380.80;;;;;;5057466;28;20495;-74
2021/09/30 12:42:14;;;;;;;34.47;12.15;;;486.40;2380.80;;;;;;5069049;28;20033;-76
2021/09/30 12:44:47;;;;;;;18.02;9.68;;;486.40;2380.80;;;;;;5056819;28;20032;-74
2021/09/30 12:47:28;;;;;;;15.55;8.25;;;486.50;2380.80;;;;;;5063867;28;20017;-74
2021/09/30 12:50:12;;;;;;;19.10;10.65;;;486.40;2380.80;;;;;;5052689;28;20087;-74
2021/09/30 12:52:40;;;;;;;15.13;8.88;;;461.70;2380.80;;;;;;5051345;28;20040;-74
2021/09/30 12:55:21;;;;;;;17.63;10.48;;;486.40;2380.80;;;;;;5051790;28;20399;-74
2021/09/30 12:57:47;;;;;;;16.10;8.40;;;486.40;2380.80;;;;;;5067991;28;20447;-74
2021/09/30 13:00:17;;;;;;;17.90;8.68;;;486.40;2380.80;;;;;;5052876;28;20025;-74
2021/09/30 13:02:44;;;;;;;16.05;8.60;;;486.40;2380.80;;;;;;5051651;28;20029;-74
2021/09/30 13:05:10;;;;;;;12.45;8.50;;;486.40;2380.80;;;;;;5054872;28;20108;-74
2021/09/30 13:07:44;;;;;;;20.15;11.40;;;486.40;2380.80;;;;;;5054502;28;20396;-74
2021/09/30 13:10:11;;;;;;;13.40;8.40;;;486.40;2380.80;;;;;;5052814;28;20020;-74
2021/09/30 13:12:36;;;;;;;19.42;11.07;;;486.50;2380.80;;;;;;5052988;28;20020;-74
2021/09/30 13:15:04;;;;;;;21.63;12.95;;;486.50;2380.80;;;;;;5052772;28;20029;-74
2021/09/30 13:17:30;;;;;;;19.92;11.70;;;486.60;2380.80;;;;;;5059818;28;20368;-74
2021/09/30 13:20:04;;;;;;;24.17;12.73;;;486.80;2380.80;;;;;;5059591;28;20025;-74
2021/09/30 13:22:43;;;;;;;24.92;11.80;;;486.90;2380.80;;;;;;5051499;28;20048;-74
2021/09/30 13:25:16;;;;;;;22.48;13.95;;;486.90;2380.80;;;;;;5066554;28;20454;-73
2021/09/30 13:27:42;;;;;;;20.98;11.75;;;487.00;2380.80;;;;;;5060258;28;20023;-74
2021/09/30 13:30:14;;;;;;;21.13;11.68;;;487.00;2380.80;;;;;;5048712;28;20028;-75
2021/09/30 13:32:41;;;;;;;22.60;13.82;;;487.10;2380.80;;;;;;5067157;28;20031;-73
2021/09/30 13:35:08;;;;;;;19.98;11.25;;;487.00;2380.80;;;;;;5051821;28;20051;-73
2021/09/30 13:37:34;;;;;;;16.45;10.98;;;487.00;2380.80;;;;;;5049884;28;20033;-73
2021/09/30 13:40:00;;;;;;;25.25;12.07;;;487.10;2380.80;;;;;;5051911;28;20108;-72
2021/09/30 13:42:32;;;;;;;22.50;11.75;;;487.00;2380.80;;;;;;5051977;28;20021;-72
2021/09/30 13:44:58;;;;;;;22.98;13.70;;;487.00;2380.80;;;;;;5049801;28;20078;-73
2021/09/30 13:47:25;;;;;;;34.63;22.67;;;487.00;2380.80;;;;;;5046092;28;20669;-72
2021/09/30 13:49:51;;;;;;;20.58;11.75;;;486.90;2380.80;;;;;;5049490;28;20114;-73
2021/09/30 13:52:18;;;;;;;19.20;11.27;;;487.00;2380.80;;;;;;5049297;28;20021;-73
2021/09/30 13:54:43;;;;;;;18.45;11.25;;;487.00;2380.80;;;;;;5048432;28;20029;-72
2021/09/30 13:57:10;;;;;;;16.73;9.88;;;486.90;2380.80;;;;;;5045825;28;20653;-74
2021/09/30 13:59:37;;;;;;;22.38;12.10;;;487.00;2380.80;;;;;;5048622;28;20024;-72
2021/09/30 14:02:03;;;;;;;24.42;11.40;;;486.90;2380.80;;;;;;5049344;28;20040;-71
2021/09/30 14:04:29;;;;;;;19.50;11.70;;;486.90;2380.80;;;;;;5050827;28;20028;-71
2021/09/30 14:06:56;;;;;;;20.77;11.02;;;486.40;2380.80;;;;;;5050415;28;20024;-73
2021/09/30 14:09:23;;;;;;;28.73;12.65;;;486.70;2380.80;;;;;;5050530;28;20031;-71
2021/09/30 14:11:49;;;;;;;17.42;10.65;;;486.70;2380.80;;;;;;5048468;28;20429;-71
2021/09/30 14:14:15;;;;;;;19.73;11.90;;;486.70;2380.80;;;;;;5048698;28;20112;-71
2021/09/30 14:16:41;;;;;;;17.48;10.50;;;486.70;2380.80;;;;;;5049218;28;20546;-71
2021/09/30 14:19:07;;;;;;;17.45;11.00;;;486.70;2380.80;;;;;;5052275;28;20105;-71
2021/09/30 14:21:32;;;;;;;23.02;11.70;;;486.70;2380.80;;;;;;5051144;28;20059;-71
2021/09/30 14:23:58;;;;;;;15.27;9.88;;;486.70;2380.80;;;;;;5049909;28;20049;-71
2021/09/30 14:26:24;;;;;;;18.10;9.20;;;486.70;2380.80;;;;;;5048849;28;20052;-71
2021/09/30 14:28:51;;;;;;;16.75;10.30;;;486.70;2380.80;;;;;;5051512;28;20476;-72
2021/09/30 14:31:17;;;;;;;15.98;10.55;;;486.70;2380.80;;;;;;5049574;28;20013;-71
2021/09/30 14:33:42;;;;;;;22.08;11.52;;;486.60;2380.80;;;;;;5050228;28;20122;-72
2021/09/30 14:36:08;;;;;;;21.05;11.27;;;486.50;2380.80;;;;;;5049734;28;20033;-72
2021/09/30 14:38:34;;;;;;;19.63;12.27;;;486.50;2380.80;;;;;;5050402;28;20029;-72
2021/09/30 14:41:00;;;;;;;25.33;14.50;;;486.50;2380.80;;;;;;5050384;28;20028;-72
2021/09/30 14:43:31;;;;;;;24.95;12.38;;;486.50;2380.80;;;;;;5051729;28;20025;-72
2021/09/30 14:45:57;;;;;;;26.00;13.00;;;486.50;2380.80;;;;;;5050554;28;20067;-72
2021/09/30 14:48:23;;;;;;;25.23;13.90;;;486.50;2380.80;;;;;;5050933;28;20052;-72
2021/09/30 14:50:51;;;;;;;19.15;12.52;;;486.50;2380.80;;;;;;5050929;28;20454;-72
2021/09/30 14:53:17;;;;;;;26.08;14.35;;;486.40;2380.80;;;;;;5050892;28;20025;-72
2021/09/30 14:55:43;;;;;;;19.20;12.55;;;486.40;2380.80;;;;;;5050103;28;20037;-72
2021/09/30 14:58:09;;;;;;;22.58;13.32;;;486.40;2380.80;;;;;;5048536;28;20082;-72
2021/09/30 15:00:34;;;;;;;27.52;13.45;;;486.40;2380.80;;;;;;5050459;28;20713;-71
2021/09/30 15:03:02;;;;;;;21.25;13.23;;;486.40;2380.80;;;;;;5050277;28;20093;-72
2021/09/30 15:05:30;;;;;;;21.42;13.13;;;461.60;2380.80;;;;;;5050809;28;20021;-73
2021/09/30 15:07:57;;;;;;;21.63;12.80;;;461.70;2380.80;;;;;;5048827;28;20381;-73
2021/09/30 15:10:22;;;;;;;21.20;12.80;;;461.50;2380.80;;;;;;5052019;28;20021;-72
2021/09/30 15:12:48;;;;;;;22.83;13.32;;;461.50;2380.80;;;;;;5053829;28;20028;-72
2021/09/30 15:15:14;;;;;;;17.60;11.77;;;461.50;2380.80;;;;;;5054757;28;20472;-73